Time;durP1;ratioP1;P1;durP2;ratioP2;P2;SDS_P1;SDS_P2;PMS_P1;PMS_P2;Temp;Humidity;BMP_temperature;BMP_pressure;BME280_temperature;BME280_humidity;BME280_pressure;Samples;Min_cycle;Max_cycle;Signal;HPM_P1;HPM_P2
2022/06/30 00:02:17;;;;;;;;;;;;;;;;;;4916084;28;20645;-66
2022/06/30 00:04:43;;;;;;;;;;;;;;;;;;4884914;29;20085;-67
2022/06/30 00:07:08;;;;;;;;;;;;;;;;;;4897273;29;20456;-66
2022/06/30 00:09:33;;;;;;;;;;;;;;;;;;4889585;29;19942;-66
2022/06/30 00:12:01;;;;;;;;;;;;;;;;;;4888365;29;19955;-66
2022/06/30 00:14:26;;;;;;;;;;;;;;;;;;4915336;28;19923;-65
2022/06/30 00:16:52;;;;;;;;;;;;;;;;;;4883290;29;19991;-66
2022/06/30 00:19:18;;;;;;;;;;;;;;;;;;4887762;29;19982;-65
2022/06/30 00:21:43;;;;;;;;;;;;;;;;;;4897062;29;20000;-64
2022/06/30 00:24:08;;;;;;;;;;;;;;;;;;4884903;29;19946;-63
2022/06/30 00:26:33;;;;;;;;;;;;;;;;;;4888628;29;19923;-67
2022/06/30 00:28:59;;;;;;;;;;;;;;;;;;4888497;29;19938;-68
2022/06/30 00:31:25;;;;;;;;;;;;;;;;;;4889696;29;19919;-66
2022/06/30 00:33:55;;;;;;;;;;;;;;;;;;4885156;29;20010;-66
2022/06/30 00:36:20;;;;;;;;;;;;;;;;;;4882246;29;19923;-66
2022/06/30 00:38:46;;;;;;;;;;;;;;;;;;4900329;29;19987;-70
2022/06/30 00:41:11;;;;;;;;;;;;;;;;;;4917237;28;19934;-70
2022/06/30 00:43:37;;;;;;;;;;;;;;;;;;4881618;29;20023;-67
2022/06/30 00:46:05;;;;;;;;;;;;;;;;;;4883338;29;19930;-64
2022/06/30 00:48:30;;;;;;;;;;;;;;;;;;4889258;29;19923;-66
2022/06/30 00:50:56;;;;;;;;;;;;;;;;;;4895210;29;20019;-66
2022/06/30 00:53:21;;;;;;;;;;;;;;;;;;4909555;28;20007;-66
2022/06/30 00:55:47;;;;;;;;;;;;;;;;;;4886065;29;19927;-65
2022/06/30 00:58:13;;;;;;;;;;;;;;;;;;4887283;29;20512;-69
2022/06/30 01:00:41;;;;;;;;;;;;;;;;;;4897228;29;19923;-66
2022/06/30 01:03:06;;;;;;;;;;;;;;;;;;4881530;29;20036;-71
2022/06/30 01:05:34;;;;;;;;;;;;;;;;;;4885926;29;20030;-67
2022/06/30 01:08:02;;;;;;;;;;;;;;;;;;4879764;29;21240;-67
2022/06/30 01:13:11;;;;;;;;;;;;;;;;;;4882924;29;20854;-66
2022/06/30 01:15:36;;;;;;;;;;;;;;;;;;4883202;29;19977;-69
2022/06/30 01:18:01;;;;;;;;;;;;;;;;;;4897378;29;21166;-65
2022/06/30 01:20:30;;;;;;;;;;;;;;;;;;4883865;29;19919;-67
2022/06/30 01:22:55;;;;;;;;;;;;;;;;;;4894989;29;20058;-66
2022/06/30 01:25:20;;;;;;;;;;;;;;;;;;4914553;28;19973;-65
2022/06/30 01:27:46;;;;;;;;;;;;;;;;;;4879969;29;20017;-69
2022/06/30 01:30:14;;;;;;;;;;;;;;;;;;4916017;28;19927;-69
2022/06/30 01:32:39;;;;;;;;;;;;;;;;;;4885999;29;20076;-66
2022/06/30 01:35:06;;;;;;;;;;;;;;;;;;4896052;29;19923;-66
2022/06/30 01:37:31;;;;;;;;;;;;;;;;;;4881812;29;19919;-61
2022/06/30 01:39:57;;;;;;;;;;;;;;;;;;4885883;29;19919;-67
2022/06/30 01:42:25;;;;;;;;;;;;;;;;;;4882674;29;19942;-68
2022/06/30 01:44:53;;;;;;;;;;;;;;;;;;4914222;28;19923;-61
2022/06/30 01:47:19;;;;;;;;;;;;;;;;;;4885390;29;19970;-69
2022/06/30 01:49:44;;;;;;;;;;;;;;;;;;4891080;29;19927;-67
2022/06/30 01:52:09;;;;;;;;;;;;;;;;;;4882567;29;19933;-70
2022/06/30 01:54:34;;;;;;;;;;;;;;;;;;4896545;29;19934;-66
2022/06/30 01:57:02;;;;;;;;;;;;;;;;;;4883498;29;20013;-67
2022/06/30 01:59:27;;;;;;;;;;;;;;;;;;4882343;29;20834;-68
2022/06/30 02:01:53;;;;;;;;;;;;;;;;;;4881627;29;20020;-67
2022/06/30 02:07:03;;;;;;;;;;;;;;;;;;4879307;29;19939;-68
2022/06/30 02:09:29;;;;;;;;;;;;;;;;;;4886402;29;19926;-70
2022/06/30 02:12:44;;;;;;;;;;;;;;;;;;4916271;28;19926;-67
2022/06/30 02:14:40;;;;;;;;;;;;;;;;;;4880843;29;20513;-70
2022/06/30 02:17:06;;;;;;;;;;;;;;;;;;4888545;29;19923;-67
2022/06/30 02:19:34;;;;;;;;;;;;;;;;;;4889946;29;19931;-66
2022/06/30 02:22:02;;;;;;;;;;;;;;;;;;4881536;29;20018;-66
2022/06/30 02:24:30;;;;;;;;;;;;;;;;;;4911418;28;19923;-68
2022/06/30 02:26:55;;;;;;;;;;;;;;;;;;4886143;29;21309;-67
2022/06/30 02:29:24;;;;;;;;;;;;;;;;;;4880175;29;20014;-65
2022/06/30 02:31:50;;;;;;;;;;;;;;;;;;4880752;29;19923;-67
2022/06/30 02:34:15;;;;;;;;;;;;;;;;;;4901153;29;19930;-65
2022/06/30 02:36:40;;;;;;;;;;;;;;;;;;4916569;28;19930;-65
2022/06/30 02:39:08;;;;;;;;;;;;;;;;;;4881654;29;22011;-66
2022/06/30 02:41:34;;;;;;;;;;;;;;;;;;4828055;29;1795843;-66
2022/06/30 02:44:02;;;;;;;;;;;;;;;;;;4918267;28;19923;-66
2022/06/30 02:46:27;;;;;;;;;;;;;;;;;;4916506;28;19929;-66
2022/06/30 02:48:53;;;;;;;;;;;;;;;;;;4887757;29;20037;-64
2022/06/30 02:51:21;;;;;;;;;;;;;;;;;;4917557;28;19923;-68
2022/06/30 02:53:46;;;;;;;;;;;;;;;;;;4915075;28;20005;-66
2022/06/30 02:56:12;;;;;;;;;;;;;;;;;;4915412;28;20477;-65
2022/06/30 02:58:37;;;;;;;;;;;;;;;;;;4916321;28;19924;-70
2022/06/30 03:01:02;;;;;;;;;;;;;;;;;;4901460;29;19919;-68
2022/06/30 03:03:30;;;;;;;;;;;;;;;;;;4918993;28;19923;-68
2022/06/30 03:05:58;;;;;;;;;;;;;;;;;;4917395;28;20014;-64
2022/06/30 03:08:26;;;;;;;;;;;;;;;;;;4880625;29;19923;-65
2022/06/30 03:10:56;;;;;;;;;;;;;;;;;;4882477;29;20075;-67
2022/06/30 03:13:24;;;;;;;;;;;;;;;;;;4916319;28;19919;-66
2022/06/30 03:15:50;;;;;;;;;;;;;;;;;;4885417;29;20005;-67
2022/06/30 03:18:18;;;;;;;;;;;;;;;;;;4917440;28;20379;-66
2022/06/30 03:20:43;;;;;;;;;;;;;;;;;;4903490;29;19926;-65
2022/06/30 03:23:11;;;;;;;;;;;;;;;;;;4913074;28;19923;-65
2022/06/30 03:25:39;;;;;;;;;;;;;;;;;;4918943;28;19930;-65
2022/06/30 03:28:07;;;;;;;;;;;;;;;;;;4901690;29;19927;-65
2022/06/30 03:30:32;;;;;;;;;;;;;;;;;;4882415;29;19927;-66
2022/06/30 03:33:02;;;;;;;;;;;;;;;;;;4884759;29;19927;-66
2022/06/30 03:35:30;;;;;;;;;;;;;;;;;;4883285;29;19927;-65
2022/06/30 03:37:55;;;;;;;;;;;;;;;;;;4889404;29;20702;-63
2022/06/30 03:40:21;;;;;;;;;;;;;;;;;;4920864;28;19919;-64
2022/06/30 03:42:46;;;;;;;;;;;;;;;;;;4885698;29;19927;-64
2022/06/30 03:45:14;;;;;;;;;;;;;;;;;;4884820;29;20459;-64
2022/06/30 03:47:39;;;;;;;;;;;;;;;;;;4882943;29;20122;-65
2022/06/30 03:50:05;;;;;;;;;;;;;;;;;;4896237;29;19931;-65
2022/06/30 03:52:30;;;;;;;;;;;;;;;;;;4884320;29;19923;-64
2022/06/30 03:54:55;;;;;;;;;;;;;;;;;;4884172;29;19923;-64
2022/06/30 03:57:21;;;;;;;;;;;;;;;;;;4883684;29;20021;-64
2022/06/30 03:59:47;;;;;;;;;;;;;;;;;;4918812;28;19929;-63
2022/06/30 04:02:12;;;;;;;;;;;;;;;;;;4915556;28;19923;-64
2022/06/30 04:04:40;;;;;;;;;;;;;;;;;;4915806;28;19924;-65
2022/06/30 04:07:05;;;;;;;;;;;;;;;;;;4915023;28;19919;-66
2022/06/30 04:09:33;;;;;;;;;;;;;;;;;;4887971;29;19923;-68
2022/06/30 04:12:01;;;;;;;;;;;;;;;;;;4898968;29;19924;-65
2022/06/30 04:14:29;;;;;;;;;;;;;;;;;;4894982;29;19919;-64
2022/06/30 04:16:59;;;;;;;;;;;;;;;;;;4885347;29;20002;-68
2022/06/30 04:19:24;;;;;;;;;;;;;;;;;;4918691;28;19927;-69
2022/06/30 04:21:52;;;;;;;;;;;;;;;;;;4917300;28;19922;-64
2022/06/30 04:24:22;;;;;;;;;;;;;;;;;;4882996;29;19923;-65
2022/06/30 04:26:47;;;;;;;;;;;;;;;;;;4919185;28;19919;-65
2022/06/30 04:29:12;;;;;;;;;;;;;;;;;;4916322;28;19930;-66
2022/06/30 04:34:21;;;;;;;;;;;;;;;;;;4884075;29;19919;-67
2022/06/30 04:36:47;;;;;;;;;;;;;;;;;;4876734;29;19930;-67
2022/06/30 04:39:12;;;;;;;;;;;;;;;;;;4883304;29;19951;-67
2022/06/30 04:41:37;;;;;;;;;;;;;;;;;;4898006;29;19931;-65
2022/06/30 04:44:08;;;;;;;;;;;;;;;;;;4888579;29;19923;-65
2022/06/30 04:46:33;;;;;;;;;;;;;;;;;;4888408;29;19923;-67
2022/06/30 04:49:00;;;;;;;;;;;;;;;;;;4902397;29;19923;-69
2022/06/30 04:51:28;;;;;;;;;;;;;;;;;;4881952;29;19927;-65
2022/06/30 04:53:54;;;;;;;;;;;;;;;;;;4879814;29;19927;-65
2022/06/30 04:56:19;;;;;;;;;;;;;;;;;;4893597;29;19929;-66
2022/06/30 04:58:52;;;;;;;;;;;;;;;;;;4912796;28;19994;-65
2022/06/30 05:01:18;;;;;;;;;;;;;;;;;;4883132;29;19930;-64
2022/06/30 05:03:46;;;;;;;;;;;;;;;;;;4915199;28;19959;-63
2022/06/30 05:06:11;;;;;;;;;;;;;;;;;;4918399;28;19923;-64
2022/06/30 05:08:37;;;;;;;;;;;;;;;;;;4886242;29;19939;-62
2022/06/30 05:11:02;;;;;;;;;;;;;;;;;;4917225;28;19965;-66
2022/06/30 05:13:28;;;;;;;;;;;;;;;;;;4921117;28;19966;-64
2022/06/30 05:15:55;;;;;;;;;;;;;;;;;;4887893;29;19923;-64
2022/06/30 05:18:26;;;;;;;;;;;;;;;;;;4885077;29;20484;-63
2022/06/30 05:20:52;;;;;;;;;;;;;;;;;;4897965;28;20562;-66
2022/06/30 05:23:20;;;;;;;;;;;;;;;;;;4915377;28;20552;-69
2022/06/30 05:28:29;;;;;;;;;;;;;;;;;;4886976;29;19923;-70
2022/06/30 05:30:58;;;;;;;;;;;;;;;;;;4920966;28;20022;-65
2022/06/30 05:33:23;;;;;;;;;;;;;;;;;;4886840;29;19998;-68
2022/06/30 05:35:48;;;;;;;;;;;;;;;;;;4918542;28;20561;-68
2022/06/30 05:38:14;;;;;;;;;;;;;;;;;;4881534;29;19923;-69
2022/06/30 05:40:39;;;;;;;;;;;;;;;;;;4914033;28;19958;-66
2022/06/30 05:43:05;;;;;;;;;;;;;;;;;;4886453;29;20002;-69
2022/06/30 05:45:33;;;;;;;;;;;;;;;;;;4887842;29;20006;-71
2022/06/30 05:47:59;;;;;;;;;;;;;;;;;;4888313;29;20793;-68
2022/06/30 05:50:24;;;;;;;;;;;;;;;;;;4883723;29;19927;-68
2022/06/30 05:52:52;;;;;;;;;;;;;;;;;;4883247;29;21101;-67
2022/06/30 05:55:18;;;;;;;;;;;;;;;;;;4884686;29;19923;-66
2022/06/30 05:57:43;;;;;;;;;;;;;;;;;;4892752;29;20581;-68
2022/06/30 06:00:11;;;;;;;;;;;;;;;;;;4914311;28;19942;-69
2022/06/30 06:02:36;;;;;;;;;;;;;;;;;;4885247;29;19998;-67
2022/06/30 06:05:03;;;;;;;;;;;;;;;;;;4883182;29;19923;-66
2022/06/30 06:07:29;;;;;;;;;;;;;;;;;;4898538;29;19927;-68
2022/06/30 06:09:54;;;;;;;;;;;;;;;;;;4917629;28;19927;-69
2022/06/30 06:12:21;;;;;;;;;;;;;;;;;;4909497;28;19930;-66
2022/06/30 06:14:47;;;;;;;;;;;;;;;;;;4892265;29;20348;-68
2022/06/30 06:17:12;;;;;;;;;;;;;;;;;;4894519;29;19919;-66
2022/06/30 06:19:37;;;;;;;;;;;;;;;;;;4881630;29;20086;-68
2022/06/30 06:22:03;;;;;;;;;;;;;;;;;;4882346;29;19919;-70
2022/06/30 06:24:28;;;;;;;;;;;;;;;;;;4883177;29;19930;-68
2022/06/30 06:26:54;;;;;;;;;;;;;;;;;;4885090;29;22248;-70
2022/06/30 06:29:21;;;;;;;;;;;;;;;;;;4896892;29;19934;-64
2022/06/30 06:31:48;;;;;;;;;;;;;;;;;;4886334;29;20045;-66
2022/06/30 06:34:14;;;;;;;;;;;;;;;;;;4888425;29;20021;-66
2022/06/30 06:36:40;;;;;;;;;;;;;;;;;;4913977;28;20613;-71
2022/06/30 06:39:05;;;;;;;;;;;;;;;;;;4883923;29;20020;-72
2022/06/30 06:41:30;;;;;;;;;;;;;;;;;;4889310;29;20389;-66
2022/06/30 06:43:58;;;;;;;;;;;;;;;;;;4919870;28;19931;-66
2022/06/30 06:46:29;;;;;;;;;;;;;;;;;;4882839;29;21432;-68
2022/06/30 06:48:57;;;;;;;;;;;;;;;;;;4885055;29;20046;-68
2022/06/30 06:51:24;;;;;;;;;;;;;;;;;;4881126;29;19922;-70
2022/06/30 06:53:50;;;;;;;;;;;;;;;;;;4919714;28;19930;-69
2022/06/30 06:56:18;;;;;;;;;;;;;;;;;;4915394;28;21206;-67
2022/06/30 06:58:44;;;;;;;;;;;;;;;;;;4890531;29;20085;-71
2022/06/30 07:01:12;;;;;;;;;;;;;;;;;;4890519;29;20828;-72
2022/06/30 07:03:38;;;;;;;;;;;;;;;;;;4893623;29;19919;-70
2022/06/30 07:06:04;;;;;;;;;;;;;;;;;;4915888;28;19926;-69
2022/06/30 07:08:29;;;;;;;;;;;;;;;;;;4902556;29;22057;-68
2022/06/30 07:10:56;;;;;;;;;;;;;;;;;;4868913;29;19981;-70
2022/06/30 07:13:22;;;;;;;;;;;;;;;;;;4887090;29;19927;-69
2022/06/30 07:15:47;;;;;;;;;;;;;;;;;;4885352;29;19926;-65
2022/06/30 07:18:13;;;;;;;;;;;;;;;;;;4888450;29;19924;-66
2022/06/30 07:20:38;;;;;;;;;;;;;;;;;;4919211;28;19926;-69
2022/06/30 07:23:04;;;;;;;;;;;;;;;;;;4887174;29;19923;-69
2022/06/30 07:25:29;;;;;;;;;;;;;;;;;;4890529;29;20066;-68
2022/06/30 07:27:55;;;;;;;;;;;;;;;;;;4923420;28;19963;-69
2022/06/30 07:30:20;;;;;;;;;;;;;;;;;;4906561;29;20996;-64
2022/06/30 07:32:45;;;;;;;;;;;;;;;;;;4923337;28;19923;-70
2022/06/30 07:35:14;;;;;;;;;;;;;;;;;;4906561;29;20291;-67
2022/06/30 07:37:39;;;;;;;;;;;;;;;;;;4922717;28;21756;-68
2022/06/30 07:40:07;;;;;;;;;;;;;;;;;;4899884;29;20010;-69
2022/06/30 07:42:33;;;;;;;;;;;;;;;;;;4890013;29;19987;-74
2022/06/30 07:44:58;;;;;;;;;;;;;;;;;;4922089;28;19938;-70
2022/06/30 07:47:23;;;;;;;;;;;;;;;;;;4889205;29;19919;-69
2022/06/30 07:49:51;;;;;;;;;;;;;;;;;;4889454;29;19923;-69
2022/06/30 07:52:17;;;;;;;;;;;;;;;;;;4922540;28;19929;-72
2022/06/30 07:54:42;;;;;;;;;;;;;;;;;;4922310;28;19923;-71
2022/06/30 07:57:10;;;;;;;;;;;;;;;;;;4891727;29;19938;-69
2022/06/30 07:59:35;;;;;;;;;;;;;;;;;;4920721;28;20002;-69
2022/06/30 08:02:00;;;;;;;;;;;;;;;;;;4885665;28;19959;-65
2022/06/30 08:04:26;;;;;;;;;;;;;;;;;;4891984;29;19923;-68
2022/06/30 08:06:51;;;;;;;;;;;;;;;;;;4903442;29;19990;-68
2022/06/30 08:09:19;;;;;;;;;;;;;;;;;;4905722;29;19923;-68
2022/06/30 08:11:44;;;;;;;;;;;;;;;;;;4885969;29;19978;-68
2022/06/30 08:14:09;;;;;;;;;;;;;;;;;;4899595;29;19983;-71
2022/06/30 08:16:35;;;;;;;;;;;;;;;;;;4915726;28;19923;-64
2022/06/30 08:19:00;;;;;;;;;;;;;;;;;;4901455;29;20389;-66
2022/06/30 08:21:28;;;;;;;;;;;;;;;;;;4890632;29;19928;-66
2022/06/30 08:23:56;;;;;;;;;;;;;;;;;;4888439;29;20702;-65
2022/06/30 08:26:21;;;;;;;;;;;;;;;;;;4887251;29;19930;-67
2022/06/30 08:28:46;;;;;;;;;;;;;;;;;;4897663;29;20466;-70
2022/06/30 08:31:12;;;;;;;;;;;;;;;;;;4917093;28;22321;-69
2022/06/30 08:33:37;;;;;;;;;;;;;;;;;;4902901;29;19923;-68
2022/06/30 08:36:03;;;;;;;;;;;;;;;;;;4897448;29;19923;-70
2022/06/30 08:38:28;;;;;;;;;;;;;;;;;;4883980;29;19934;-65
2022/06/30 08:43:44;;;;;;;;;;;;;;;;;;4886321;29;20033;-72
2022/06/30 08:46:10;;;;;;;;;;;;;;;;;;4887808;29;19957;-66
2022/06/30 08:48:35;;;;;;;;;;;;;;;;;;4884674;29;19973;-70
2022/06/30 08:51:00;;;;;;;;;;;;;;;;;;4896428;29;20039;-67
2022/06/30 08:53:26;;;;;;;;;;;;;;;;;;4918922;28;20006;-69
2022/06/30 08:55:52;;;;;;;;;;;;;;;;;;4919924;28;19966;-68
2022/06/30 08:58:20;;;;;;;;;;;;;;;;;;4887910;29;19919;-67
2022/06/30 09:00:45;;;;;;;;;;;;;;;;;;4884799;29;19923;-70
2022/06/30 09:03:13;;;;;;;;;;;;;;;;;;4887601;29;20069;-72
2022/06/30 09:05:41;;;;;;;;;;;;;;;;;;4885484;29;19923;-69
2022/06/30 09:08:07;;;;;;;;;;;;;;;;;;4915990;28;19923;-72
2022/06/30 09:10:33;;;;;;;;;;;;;;;;;;4883163;29;20909;-67
2022/06/30 09:12:58;;;;;;;;;;;;;;;;;;4888377;29;19998;-66
2022/06/30 09:15:28;;;;;;;;;;;;;;;;;;4917000;28;19930;-65
2022/06/30 09:17:54;;;;;;;;;;;;;;;;;;4885195;29;20010;-68
2022/06/30 09:20:24;;;;;;;;;;;;;;;;;;4897918;29;19982;-67
2022/06/30 09:22:49;;;;;;;;;;;;;;;;;;4917616;28;19923;-68
2022/06/30 09:25:15;;;;;;;;;;;;;;;;;;4883605;29;19993;-68
2022/06/30 09:27:47;;;;;;;;;;;;;;;;;;4899886;29;20021;-67
2022/06/30 09:30:12;;;;;;;;;;;;;;;;;;4900395;29;19941;-69
2022/06/30 09:32:37;;;;;;;;;;;;;;;;;;4892465;29;20466;-68
2022/06/30 09:35:05;;;;;;;;;;;;;;;;;;4884387;29;20366;-69
2022/06/30 09:37:31;;;;;;;;;;;;;;;;;;4884525;29;19923;-68
2022/06/30 09:39:57;;;;;;;;;;;;;;;;;;4902810;29;19986;-67
2022/06/30 09:42:22;;;;;;;;;;;;;;;;;;4888876;29;19931;-69
2022/06/30 09:44:48;;;;;;;;;;;;;;;;;;4902455;29;20367;-67
2022/06/30 09:47:13;;;;;;;;;;;;;;;;;;4869331;29;19930;-67
2022/06/30 09:49:41;;;;;;;;;;;;;;;;;;4902683;29;19927;-67
2022/06/30 09:52:07;;;;;;;;;;;;;;;;;;4881096;29;20054;-69
2022/06/30 09:54:35;;;;;;;;;;;;;;;;;;4916148;28;19942;-68
2022/06/30 09:57:01;;;;;;;;;;;;;;;;;;4887493;29;20595;-68
2022/06/30 09:59:26;;;;;;;;;;;;;;;;;;4911018;28;19954;-68
2022/06/30 10:01:54;;;;;;;;;;;;;;;;;;4897865;29;19923;-70
2022/06/30 10:04:19;;;;;;;;;;;;;;;;;;4899552;29;20319;-71
2022/06/30 10:06:46;;;;;;;;;;;;;;;;;;4882859;29;19930;-72
2022/06/30 10:09:11;;;;;;;;;;;;;;;;;;4921401;28;20280;-71
2022/06/30 10:11:39;;;;;;;;;;;;;;;;;;4921476;28;19923;-73
2022/06/30 10:14:05;;;;;;;;;;;;;;;;;;4903676;29;20588;-75
2022/06/30 10:16:33;;;;;;;;;;;;;;;;;;4886051;29;19923;-68
2022/06/30 10:18:58;;;;;;;;;;;;;;;;;;4885448;29;20484;-71
2022/06/30 10:21:27;;;;;;;;;;;;;;;;;;4883700;29;20478;-73
2022/06/30 10:23:52;;;;;;;;;;;;;;;;;;4910272;28;19994;-66
2022/06/30 10:29:02;;;;;;;;;;;;;;;;;;4890073;29;19927;-67
2022/06/30 10:31:27;;;;;;;;;;;;;;;;;;4903269;29;21934;-68
2022/06/30 10:33:52;;;;;;;;;;;;;;;;;;4919896;28;20499;-67
2022/06/30 10:36:20;;;;;;;;;;;;;;;;;;4889408;29;21769;-68
2022/06/30 10:38:47;;;;;;;;;;;;;;;;;;4891088;29;19931;-68
2022/06/30 10:41:12;;;;;;;;;;;;;;;;;;4904324;29;20608;-69
2022/06/30 10:43:38;;;;;;;;;;;;;;;;;;4923962;28;20400;-68
2022/06/30 10:46:06;;;;;;;;;;;;;;;;;;4886490;29;19986;-69
2022/06/30 10:48:32;;;;;;;;;;;;;;;;;;4918597;28;19923;-67
2022/06/30 10:50:57;;;;;;;;;;;;;;;;;;4886637;29;21774;-65
2022/06/30 10:53:25;;;;;;;;;;;;;;;;;;4886291;29;20458;-66
2022/06/30 10:55:55;;;;;;;;;;;;;;;;;;4917269;28;19923;-66
2022/06/30 10:58:25;;;;;;;;;;;;;;;;;;4914981;28;19923;-66
2022/06/30 11:00:52;;;;;;;;;;;;;;;;;;4890046;29;22413;-66
2022/06/30 11:03:18;;;;;;;;;;;;;;;;;;4887465;29;20013;-66
2022/06/30 11:05:48;;;;;;;;;;;;;;;;;;4899918;29;20030;-66
2022/06/30 11:08:13;;;;;;;;;;;;;;;;;;4887832;29;19923;-66
2022/06/30 11:10:39;;;;;;;;;;;;;;;;;;4907719;29;20280;-65
2022/06/30 11:13:06;;;;;;;;;;;;;;;;;;4924346;28;19923;-65
2022/06/30 11:15:34;;;;;;;;;;;;;;;;;;4918695;28;20005;-67
2022/06/30 11:17:59;;;;;;;;;;;;;;;;;;4916490;28;19923;-67
2022/06/30 11:20:27;;;;;;;;;;;;;;;;;;4887238;29;19923;-66
2022/06/30 11:22:53;;;;;;;;;;;;;;;;;;4886611;29;20058;-66
2022/06/30 11:28:16;;;;;;;;;;;;;;;;;;4893556;29;19923;-66
2022/06/30 11:30:42;;;;;;;;;;;;;;;;;;4901027;29;19938;-65
2022/06/30 11:33:08;;;;;;;;;;;;;;;;;;4919826;28;19923;-67
2022/06/30 11:35:33;;;;;;;;;;;;;;;;;;4883684;29;20525;-65
2022/06/30 11:37:58;;;;;;;;;;;;;;;;;;4882708;29;20531;-66
2022/06/30 11:40:24;;;;;;;;;;;;;;;;;;4891320;29;19927;-65
2022/06/30 11:42:53;;;;;;;;;;;;;;;;;;4894319;29;19923;-65
2022/06/30 11:45:18;;;;;;;;;;;;;;;;;;4918203;28;20005;-65
2022/06/30 11:47:44;;;;;;;;;;;;;;;;;;4917082;28;19923;-66
2022/06/30 11:50:10;;;;;;;;;;;;;;;;;;4899187;29;20387;-66
2022/06/30 11:52:38;;;;;;;;;;;;;;;;;;4919578;28;20257;-65
2022/06/30 11:55:03;;;;;;;;;;;;;;;;;;4886151;29;19923;-66
2022/06/30 11:57:32;;;;;;;;;;;;;;;;;;4885390;29;19966;-66
2022/06/30 12:00:00;;;;;;;;;;;;;;;;;;4888593;29;20017;-65
2022/06/30 12:02:26;;;;;;;;;;;;;;;;;;4919773;28;19930;-65
2022/06/30 12:04:51;;;;;;;;;;;;;;;;;;4904943;29;21761;-65
2022/06/30 12:07:18;;;;;;;;;;;;;;;;;;4907803;29;19919;-66
2022/06/30 12:09:44;;;;;;;;;;;;;;;;;;4902143;29;20002;-65
2022/06/30 12:12:09;;;;;;;;;;;;;;;;;;4903110;29;19934;-64
2022/06/30 12:14:35;;;;;;;;;;;;;;;;;;4903333;29;20804;-65
2022/06/30 12:17:00;;;;;;;;;;;;;;;;;;4884823;29;19919;-68
2022/06/30 12:19:25;;;;;;;;;;;;;;;;;;4890509;29;19934;-66
2022/06/30 12:21:51;;;;;;;;;;;;;;;;;;4882883;29;19923;-65
2022/06/30 12:24:16;;;;;;;;;;;;;;;;;;4900264;29;19993;-66
2022/06/30 12:26:41;;;;;;;;;;;;;;;;;;4917318;28;19923;-67
2022/06/30 12:29:06;;;;;;;;;;;;;;;;;;4917446;28;19923;-67
2022/06/30 12:31:32;;;;;;;;;;;;;;;;;;4916854;28;20385;-66
2022/06/30 12:34:00;;;;;;;;;;;;;;;;;;4889116;29;20337;-67
2022/06/30 12:36:25;;;;;;;;;;;;;;;;;;4923315;28;19923;-67
2022/06/30 12:38:53;;;;;;;;;;;;;;;;;;4900972;29;19922;-67
2022/06/30 12:41:18;;;;;;;;;;;;;;;;;;4901237;28;20013;-67
2022/06/30 12:43:43;;;;;;;;;;;;;;;;;;4905539;29;20034;-66
2022/06/30 12:46:11;;;;;;;;;;;;;;;;;;4918280;28;19979;-65
2022/06/30 12:48:39;;;;;;;;;;;;;;;;;;4898837;29;20046;-67
2022/06/30 12:51:08;;;;;;;;;;;;;;;;;;4918511;28;19922;-68
2022/06/30 12:53:38;;;;;;;;;;;;;;;;;;4885273;29;19929;-68
2022/06/30 12:56:03;;;;;;;;;;;;;;;;;;4910611;28;19927;-67
2022/06/30 12:58:28;;;;;;;;;;;;;;;;;;4884905;29;19926;-67
2022/06/30 13:00:53;;;;;;;;;;;;;;;;;;4883959;29;20018;-66
2022/06/30 13:03:21;;;;;;;;;;;;;;;;;;4916134;28;20386;-67
2022/06/30 13:05:46;;;;;;;;;;;;;;;;;;4882717;29;20445;-67
2022/06/30 13:08:12;;;;;;;;;;;;;;;;;;4882186;29;19923;-66
2022/06/30 13:13:26;;;;;;;;;;;;;;;;;;4891968;29;20001;-67
2022/06/30 13:15:51;;;;;;;;;;;;;;;;;;4900190;29;19962;-67
2022/06/30 13:18:19;;;;;;;;;;;;;;;;;;4897597;29;19922;-61
2022/06/30 13:20:47;;;;;;;;;;;;;;;;;;4885320;29;19927;-64
2022/06/30 13:23:12;;;;;;;;;;;;;;;;;;4914792;28;19934;-63
2022/06/30 13:25:37;;;;;;;;;;;;;;;;;;4887053;29;20418;-64
2022/06/30 13:28:05;;;;;;;;;;;;;;;;;;4879505;29;21842;-64
2022/06/30 13:30:33;;;;;;;;;;;;;;;;;;4913369;28;20545;-65
2022/06/30 13:32:58;;;;;;;;;;;;;;;;;;4899705;29;20006;-65
2022/06/30 13:35:25;;;;;;;;;;;;;;;;;;4882878;29;19974;-66
2022/06/30 13:37:51;;;;;;;;;;;;;;;;;;4913843;28;19926;-63
2022/06/30 13:40:22;;;;;;;;;;;;;;;;;;4876784;29;19966;-65
2022/06/30 13:42:47;;;;;;;;;;;;;;;;;;4889936;29;19934;-64
2022/06/30 13:45:12;;;;;;;;;;;;;;;;;;4890605;29;19923;-64
2022/06/30 13:47:38;;;;;;;;;;;;;;;;;;4886236;29;19919;-65
2022/06/30 13:50:03;;;;;;;;;;;;;;;;;;4884335;29;19926;-63
2022/06/30 13:52:34;;;;;;;;;;;;;;;;;;4910649;28;19969;-64
2022/06/30 13:55:01;;;;;;;;;;;;;;;;;;4882647;29;19927;-64
2022/06/30 13:57:27;;;;;;;;;;;;;;;;;;4879604;29;19934;-64
2022/06/30 13:59:55;;;;;;;;;;;;;;;;;;4883936;29;20566;-65
2022/06/30 14:02:23;;;;;;;;;;;;;;;;;;4890030;29;20113;-65
2022/06/30 14:04:49;;;;;;;;;;;;;;;;;;4888259;29;20913;-65
2022/06/30 14:07:14;;;;;;;;;;;;;;;;;;4907297;29;19919;-64
2022/06/30 14:09:39;;;;;;;;;;;;;;;;;;4915229;28;19982;-64
2022/06/30 14:12:05;;;;;;;;;;;;;;;;;;4889109;29;19942;-64
2022/06/30 14:14:33;;;;;;;;;;;;;;;;;;4922943;28;20844;-64
2022/06/30 14:16:58;;;;;;;;;;;;;;;;;;4925963;28;19922;-64
2022/06/30 14:19:26;;;;;;;;;;;;;;;;;;4901786;29;19930;-64
2022/06/30 14:21:54;;;;;;;;;;;;;;;;;;4888463;29;20010;-63
2022/06/30 14:24:20;;;;;;;;;;;;;;;;;;4889903;29;19923;-64
2022/06/30 14:26:48;;;;;;;;;;;;;;;;;;4880227;29;20049;-65
2022/06/30 14:29:14;;;;;;;;;;;;;;;;;;4889694;29;20065;-65
2022/06/30 14:31:39;;;;;;;;;;;;;;;;;;4922562;28;19990;-65
2022/06/30 14:34:07;;;;;;;;;;;;;;;;;;4894369;29;19931;-65
2022/06/30 14:36:34;;;;;;;;;;;;;;;;;;4894637;29;20379;-64
2022/06/30 14:38:59;;;;;;;;;;;;;;;;;;4895833;29;20044;-63
2022/06/30 14:44:11;;;;;;;;;;;;;;;;;;4896725;29;20478;-64
2022/06/30 14:46:36;;;;;;;;;;;;;;;;;;4892611;29;20022;-64
2022/06/30 14:49:04;;;;;;;;;;;;;;;;;;4895323;29;19923;-64
2022/06/30 14:51:29;;;;;;;;;;;;;;;;;;4920092;28;19926;-63
2022/06/30 14:53:59;;;;;;;;;;;;;;;;;;4914840;28;19930;-64
2022/06/30 14:56:30;;;;;;;;;;;;;;;;;;4886956;29;22367;-64
2022/06/30 14:58:55;;;;;;;;;;;;;;;;;;4884136;29;20489;-67
2022/06/30 15:01:21;;;;;;;;;;;;;;;;;;4911905;28;20014;-64
2022/06/30 15:03:46;;;;;;;;;;;;;;;;;;4891532;29;20379;-64
2022/06/30 15:06:16;;;;;;;;;;;;;;;;;;4883742;29;19923;-63
2022/06/30 15:08:41;;;;;;;;;;;;;;;;;;4915548;28;19927;-63
2022/06/30 15:11:09;;;;;;;;;;;;;;;;;;4887285;29;20002;-64
2022/06/30 15:13:37;;;;;;;;;;;;;;;;;;4922640;28;20047;-64
2022/06/30 15:16:02;;;;;;;;;;;;;;;;;;4895143;29;19919;-64
2022/06/30 15:18:27;;;;;;;;;;;;;;;;;;4886607;29;19927;-65
2022/06/30 15:26:21;;;;;;;;;;;;;;;;;;4883626;29;19985;-64
2022/06/30 15:28:46;;;;;;;;;;;;;;;;;;4889080;29;19927;-64
2022/06/30 15:31:14;;;;;;;;;;;;;;;;;;4902298;29;19931;-64
2022/06/30 15:33:39;;;;;;;;;;;;;;;;;;4900160;29;19919;-65
2022/06/30 15:36:05;;;;;;;;;;;;;;;;;;4920863;28;20292;-65
2022/06/30 15:38:30;;;;;;;;;;;;;;;;;;4886716;29;19957;-64
2022/06/30 15:40:56;;;;;;;;;;;;;;;;;;4886092;29;19971;-64
2022/06/30 15:43:23;;;;;;;;;;;;;;;;;;4886871;29;20033;-64
2022/06/30 15:45:51;;;;;;;;;;;;;;;;;;4888816;29;19923;-64
2022/06/30 15:48:19;;;;;;;;;;;;;;;;;;4916477;28;19946;-63
2022/06/30 15:50:44;;;;;;;;;;;;;;;;;;4879434;29;19923;-64
2022/06/30 15:53:11;;;;;;;;;;;;;;;;;;4890799;29;21520;-62
2022/06/30 15:55:39;;;;;;;;;;;;;;;;;;4882129;29;19923;-65
2022/06/30 15:58:07;;;;;;;;;;;;;;;;;;4878580;29;21321;-63
2022/06/30 16:00:32;;;;;;;;;;;;;;;;;;4887313;29;19927;-62
2022/06/30 16:02:57;;;;;;;;;;;;;;;;;;4889472;29;19934;-63
2022/06/30 16:05:25;;;;;;;;;;;;;;;;;;4886714;29;20072;-62
2022/06/30 16:07:50;;;;;;;;;;;;;;;;;;4886023;29;19922;-63
2022/06/30 16:10:16;;;;;;;;;;;;;;;;;;4908928;28;19930;-64
2022/06/30 16:12:41;;;;;;;;;;;;;;;;;;4912800;28;20045;-62
2022/06/30 16:15:06;;;;;;;;;;;;;;;;;;4918009;28;19919;-62
2022/06/30 16:17:34;;;;;;;;;;;;;;;;;;4887950;29;20810;-63
2022/06/30 16:20:00;;;;;;;;;;;;;;;;;;4886654;29;19927;-62
2022/06/30 16:22:25;;;;;;;;;;;;;;;;;;4896486;29;19934;-62
2022/06/30 16:24:53;;;;;;;;;;;;;;;;;;4915196;28;19943;-65
2022/06/30 16:27:21;;;;;;;;;;;;;;;;;;4894908;29;19923;-62
2022/06/30 16:29:49;;;;;;;;;;;;;;;;;;4897568;29;19923;-63
2022/06/30 16:32:14;;;;;;;;;;;;;;;;;;4892423;29;21575;-64
2022/06/30 16:34:41;;;;;;;;;;;;;;;;;;4886663;29;20398;-65
2022/06/30 16:37:07;;;;;;;;;;;;;;;;;;4900220;29;20000;-63
2022/06/30 16:39:32;;;;;;;;;;;;;;;;;;4909471;28;19970;-61
2022/06/30 16:42:05;;;;;;;;;;;;;;;;;;4880505;29;20748;-62
2022/06/30 16:44:33;;;;;;;;;;;;;;;;;;4882921;29;20676;-63
2022/06/30 16:46:59;;;;;;;;;;;;;;;;;;4883201;29;21608;-62
2022/06/30 16:49:24;;;;;;;;;;;;;;;;;;4888703;29;19942;-62
2022/06/30 16:51:49;;;;;;;;;;;;;;;;;;4886911;29;19930;-63
2022/06/30 16:54:15;;;;;;;;;;;;;;;;;;4884357;29;20339;-63
2022/06/30 16:56:42;;;;;;;;;;;;;;;;;;4887542;29;19927;-62
2022/06/30 16:59:10;;;;;;;;;;;;;;;;;;4886637;29;20524;-64
2022/06/30 17:01:38;;;;;;;;;;;;;;;;;;4889339;29;19942;-63
2022/06/30 17:04:04;;;;;;;;;;;;;;;;;;4891925;29;20006;-63
2022/06/30 17:06:31;;;;;;;;;;;;;;;;;;4890077;29;19927;-63
2022/06/30 17:08:59;;;;;;;;;;;;;;;;;;4886104;29;20018;-63
2022/06/30 17:11:24;;;;;;;;;;;;;;;;;;4882936;29;19919;-64